Time;durP1;ratioP1;P1;durP2;ratioP2;P2;SDS_P1;SDS_P2;PMS_P1;PMS_P2;Temp;Humidity;BMP_temperature;BMP_pressure;BME280_temperature;BME280_humidity;BME280_pressure;Samples;Min_cycle;Max_cycle;Signal;HPM_P1;HPM_P2
2021/07/28 00:01:23;;;;;;;3.38;0.90;;;;;;;18.86;68.37;101014.59;4917581;29;20418;-90
2021/07/28 00:03:50;;;;;;;0.10;0.10;;;;;;;18.85;68.47;101007.50;4918523;29;20055;-90
2021/07/28 00:06:21;;;;;;;0.10;0.10;;;;;;;18.85;68.52;101010.19;4917337;29;20052;-90
2021/07/28 00:08:48;;;;;;;0.90;0.63;;;;;;;18.79;68.58;101008.69;4916882;29;20032;-95
2021/07/28 00:11:19;;;;;;;0.13;0.13;;;;;;;18.81;68.47;101005.94;4905745;29;20139;-91
2021/07/28 00:13:46;;;;;;;0.25;0.25;;;;;;;18.76;68.63;101004.34;4914206;29;20369;-90
2021/07/28 00:16:14;;;;;;;0.30;0.30;;;;;;;18.76;68.48;101007.00;4906231;29;20029;-91
2021/07/28 00:18:51;;;;;;;0.28;0.28;;;;;;;18.70;68.78;101007.34;4913202;29;20369;-89
2021/07/28 00:24:07;;;;;;;0.40;0.40;;;;;;;18.71;68.64;100997.47;4916687;29;20488;-89
2021/07/28 00:26:34;;;;;;;1.67;1.55;;;;;;;18.70;68.74;100996.59;4916255;29;20040;-86
2021/07/28 00:29:00;;;;;;;0.25;0.25;;;;;;;18.69;68.58;100997.56;4915796;29;20062;-88
2021/07/28 00:31:26;;;;;;;0.10;0.10;;;;;;;18.65;68.84;100995.13;4915556;29;20060;-89
2021/07/28 00:33:53;;;;;;;0.20;0.20;;;;;;;18.63;68.63;100997.88;4916149;29;20036;-88
2021/07/28 00:36:19;;;;;;;0.10;0.10;;;;;;;18.62;68.83;100990.78;4916190;29;20028;-88
2021/07/28 00:38:46;;;;;;;0.10;0.10;;;;;;;18.61;69.01;100988.19;4915739;29;20060;-92
2021/07/28 00:41:14;;;;;;;0.20;0.20;;;;;;;18.59;68.99;100993.59;4916758;29;20083;-89
2021/07/28 00:43:41;;;;;;;0.17;0.17;;;;;;;18.57;69.11;100993.69;4916188;29;20143;-89
2021/07/28 00:46:08;;;;;;;0.47;0.47;;;;;;;18.56;69.19;100983.91;4917084;29;20060;-88
2021/07/28 00:48:35;;;;;;;0.30;0.30;;;;;;;18.60;68.99;100976.56;4916129;29;20048;-88
2021/07/28 00:51:04;;;;;;;0.13;0.13;;;;;;;18.61;68.69;100980.97;4916211;29;20111;-88
2021/07/28 00:53:31;;;;;;;0.40;0.40;;;;;;;18.61;68.76;100983.66;4916627;29;20036;-89
2021/07/28 00:55:59;;;;;;;0.10;0.10;;;;;;;18.61;68.74;100975.63;4916615;29;20095;-88
2021/07/28 00:58:26;;;;;;;0.10;0.10;;;;;;;18.61;68.83;100975.63;4916251;29;20036;-88
2021/07/28 01:00:53;;;;;;;0.10;0.10;;;;;;;18.60;68.84;100976.56;4916337;29;20032;-88
2021/07/28 01:03:19;;;;;;;0.55;0.55;;;;;;;18.60;68.71;100976.56;4919215;29;20032;-89
2021/07/28 01:05:49;;;;;;;0.10;0.10;;;;;;;18.63;68.50;100971.06;4919001;29;20032;-88
2021/07/28 01:08:16;;;;;;;0.20;0.20;;;;;;;18.58;68.78;100967.75;4919355;29;20061;-88
2021/07/28 01:10:45;;;;;;;0.28;0.28;;;;;;;18.59;68.75;100969.44;4914109;29;20033;-90
2021/07/28 01:13:12;;;;;;;0.52;0.47;;;;;;;18.58;68.84;100965.06;4915338;29;20530;-88
2021/07/28 01:18:23;;;;;;;0.32;0.32;;;;;;;18.55;68.99;100962.50;5068698;27;20418;-88
2021/07/28 01:20:50;;;;;;;0.10;0.10;;;;;;;18.57;68.81;100966.00;5068297;28;20535;-90
2021/07/28 01:23:35;;;;;;;0.10;0.10;;;;;;;18.62;68.85;100963.06;5029765;28;20089;-89
2021/07/28 01:26:05;;;;;;;0.50;0.50;;;;;;;18.56;69.02;100961.56;5026801;28;20034;-88
2021/07/28 01:28:36;;;;;;;0.10;0.10;;;;;;;18.54;69.03;100961.66;5027626;28;20034;-89
2021/07/28 01:31:13;;;;;;;0.88;0.65;;;;;;;18.58;68.85;100960.53;5028825;28;20054;-91
2021/07/28 01:33:42;;;;;;;0.80;0.80;;;;;;;18.56;68.98;100953.53;5029285;28;20030;-89
2021/07/28 01:36:14;;;;;;;0.10;0.10;;;;;;;18.55;69.25;100951.78;5028965;28;20056;-89
2021/07/28 01:38:40;;;;;;;0.10;0.10;;;;;;;18.53;69.07;100948.31;5028832;28;20029;-88
2021/07/28 01:41:08;;;;;;;0.10;0.10;;;;;;;18.49;69.20;100952.09;5021475;28;20028;-89
2021/07/28 01:43:35;;;;;;;0.10;0.10;;;;;;;18.49;69.45;100952.09;5029315;28;20030;-89
2021/07/28 01:46:03;;;;;;;0.35;0.35;;;;;;;18.53;69.22;100945.63;5028633;28;20064;-88
2021/07/28 01:48:30;;;;;;;0.10;0.10;;;;;;;18.53;69.74;100953.66;5028569;28;20025;-89
2021/07/28 01:50:57;;;;;;;1.27;1.27;;;;;;;18.57;69.82;100942.72;5028736;28;20061;-89
2021/07/28 01:53:25;;;;;;;0.28;0.28;;;;;;;18.66;69.72;100935.13;5028777;28;20018;-89
2021/07/28 01:55:54;;;;;;;0.20;0.20;;;;;;;18.73;69.79;100937.41;5027962;28;20021;-88
2021/07/28 01:58:21;;;;;;;0.68;0.68;;;;;;;18.78;69.78;100934.50;5029134;28;20044;-89
2021/07/28 02:00:47;;;;;;;2.20;1.08;;;;;;;18.82;70.16;100940.56;5029347;28;20030;-89
2021/07/28 02:03:16;;;;;;;0.10;0.10;;;;;;;18.86;69.99;100934.06;5029560;28;20064;-89
2021/07/28 02:05:48;;;;;;;1.58;1.50;;;;;;;18.90;69.99;100930.25;5029033;28;20543;-89
2021/07/28 02:08:17;;;;;;;1.07;1.07;;;;;;;18.96;69.84;100934.47;5029349;28;20384;-89
2021/07/28 02:10:47;;;;;;;0.10;0.10;;;;;;;18.94;69.91;100931.00;5012660;28;20030;-90
2021/07/28 02:13:15;;;;;;;0.22;0.22;;;;;;;18.92;69.89;100934.63;5029108;28;20021;-89
2021/07/28 02:15:42;;;;;;;0.57;0.57;;;;;;;18.87;70.20;100925.94;5028443;28;20527;-90
2021/07/28 02:18:09;;;;;;;0.68;0.68;;;;;;;18.86;70.28;100926.03;5024192;28;20033;-90
2021/07/28 02:20:35;;;;;;;0.15;0.15;;;;;;;18.88;70.28;100932.19;5021889;28;20498;-91
2021/07/28 02:23:03;;;;;;;0.22;0.22;;;;;;;18.91;70.18;100926.66;5029176;28;20033;-88
2021/07/28 02:25:29;;;;;;;0.38;0.38;;;;;;;18.92;70.39;100926.56;5029078;28;20033;-89
2021/07/28 02:27:56;;;;;;;0.38;0.38;;;;;;;18.89;70.97;100918.69;5025222;28;20117;-89
2021/07/28 02:30:23;;;;;;;0.73;0.73;;;;;;;18.96;70.78;100921.06;5015185;28;20030;-89
2021/07/28 02:32:50;;;;;;;0.88;0.88;;;;;;;18.96;70.73;100921.91;5004793;28;20026;-90
2021/07/28 02:35:16;;;;;;;0.30;0.30;;;;;;;19.06;70.58;100928.50;5015531;28;20500;-90
2021/07/28 02:37:44;;;;;;;0.80;0.73;;;;;;;18.96;71.00;100927.28;5012848;28;20091;-90
2021/07/28 02:40:13;;;;;;;0.32;0.32;;;;;;;19.12;70.40;100930.00;5015486;28;20521;-90
2021/07/28 02:42:40;;;;;;;0.30;0.30;;;;;;;19.17;70.23;100929.75;5015914;28;20659;-89
2021/07/28 02:45:07;;;;;;;0.57;0.57;;;;;;;19.12;70.25;100930.00;5012365;28;20379;-89
2021/07/28 02:47:46;;;;;;;0.57;0.57;;;;;;;19.03;70.72;100936.75;5013286;28;20492;-90
2021/07/28 02:50:22;;;;;;;0.40;0.40;;;;;;;19.05;70.83;100929.50;5015180;28;20036;-89
2021/07/28 02:52:57;;;;;;;0.35;0.35;;;;;;;19.19;70.39;100936.78;5001745;28;20037;-88
2021/07/28 02:55:31;;;;;;;0.55;0.55;;;;;;;19.12;70.67;100935.38;5005668;28;20026;-90
2021/07/28 02:58:05;;;;;;;5.72;1.55;;;;;;;19.17;70.58;100927.06;5010454;28;20044;-91
2021/07/28 03:00:31;;;;;;;0.35;0.35;;;;;;;19.22;70.61;100933.06;5013973;28;20022;-89
2021/07/28 03:02:58;;;;;;;1.40;1.30;;;;;;;19.26;70.39;100923.03;5014540;28;20026;-90
2021/07/28 03:05:24;;;;;;;0.32;0.32;;;;;;;19.16;70.44;100928.88;5015142;28;20026;-89
2021/07/28 03:07:50;;;;;;;0.88;0.88;;;;;;;19.26;70.23;100925.72;5015405;28;20026;-89
2021/07/28 03:10:17;;;;;;;1.35;1.25;;;;;;;19.21;70.21;100923.25;5014998;28;20033;-88
2021/07/28 03:12:44;;;;;;;0.45;0.45;;;;;;;19.20;69.99;100921.53;4998671;28;20054;-88
2021/07/28 03:15:12;;;;;;;1.10;1.10;;;;;;;19.19;69.90;100920.66;5012859;28;20385;-87
2021/07/28 03:17:39;;;;;;;8.07;0.57;;;;;;;19.18;69.92;100924.31;5014322;28;20114;-88
2021/07/28 03:20:06;;;;;;;0.80;0.80;;;;;;;19.14;69.90;100929.91;5014706;28;20119;-88
2021/07/28 03:22:34;;;;;;;0.85;0.68;;;;;;;19.07;70.36;100924.88;5014520;28;20034;-88
2021/07/28 03:25:00;;;;;;;0.63;0.63;;;;;;;19.06;70.43;100933.88;5008064;28;20080;-89
2021/07/28 03:27:27;;;;;;;0.82;0.82;;;;;;;19.13;70.38;100925.50;5014846;28;20108;-88
2021/07/28 03:29:53;;;;;;;0.10;0.10;;;;;;;19.14;70.35;100921.84;5015749;28;20030;-88
2021/07/28 03:32:19;;;;;;;0.25;0.25;;;;;;;19.06;71.11;100922.28;5014214;28;20397;-90
2021/07/28 03:34:45;;;;;;;0.65;0.65;;;;;;;19.19;70.73;100922.47;5014979;28;20026;-89
2021/07/28 03:37:14;;;;;;;0.45;0.45;;;;;;;19.28;70.62;100924.66;5013885;28;20038;-89
2021/07/28 03:39:41;;;;;;;0.95;0.93;;;;;;;19.37;70.49;100925.97;5007826;28;20361;-90
2021/07/28 03:42:08;;;;;;;1.60;1.50;;;;;;;19.39;70.51;100910.66;5014253;28;20026;-88
2021/07/28 03:44:34;;;;;;;1.05;1.05;;;;;;;19.40;70.53;100913.25;5014576;28;20034;-90
2021/07/28 03:47:01;;;;;;;0.10;0.10;;;;;;;19.49;70.25;100913.66;5008845;28;20497;-92
2021/07/28 03:49:27;;;;;;;0.47;0.47;;;;;;;19.42;70.48;100909.59;5013709;28;20026;-89
2021/07/28 03:51:53;;;;;;;1.23;1.15;;;;;;;19.46;69.94;100911.16;5014088;28;20030;-88
2021/07/28 03:54:20;;;;;;;0.57;0.50;;;;;;;19.38;70.13;100909.75;5014104;28;20381;-90
2021/07/28 03:56:46;;;;;;;1.85;1.75;;;;;;;19.37;70.10;100908.03;5013647;28;20052;-90
2021/07/28 03:59:12;;;;;;;0.20;0.20;;;;;;;19.21;70.54;100912.53;5014134;28;20026;-90
2021/07/28 04:01:39;;;;;;;1.10;1.10;;;;;;;19.31;70.00;100908.38;5013850;28;20069;-89
2021/07/28 04:04:05;;;;;;;0.20;0.20;;;;;;;19.31;69.91;100907.50;5014851;28;20037;-89
2021/07/28 04:06:32;;;;;;;5.68;1.55;;;;;;;19.28;70.21;100913.91;5014992;28;20088;-89
2021/07/28 04:08:58;;;;;;;0.47;0.47;;;;;;;19.27;70.04;100914.00;5008808;28;20449;-88
2021/07/28 04:11:24;;;;;;;0.13;0.13;;;;;;;19.25;70.12;100911.38;5004296;28;20450;-90
2021/07/28 04:13:50;;;;;;;1.75;0.98;;;;;;;19.29;69.94;100912.09;5012347;28;20026;-89
2021/07/28 04:16:18;;;;;;;0.68;0.68;;;;;;;19.31;70.02;100911.06;5010366;28;20042;-89
2021/07/28 04:18:45;;;;;;;0.38;0.38;;;;;;;19.31;69.81;100913.72;4997872;28;20385;-88
2021/07/28 04:21:11;;;;;;;3.95;1.00;;;;;;;19.26;70.43;100917.66;5013667;28;20026;-88
2021/07/28 04:23:37;;;;;;;0.52;0.52;;;;;;;19.27;70.50;100912.19;5014055;28;20166;-89
2021/07/28 04:26:03;;;;;;;0.82;0.82;;;;;;;19.37;70.18;100916.09;5014022;28;20041;-89
2021/07/28 04:28:30;;;;;;;0.63;0.63;;;;;;;19.37;70.25;100913.41;5013342;28;20030;-89
2021/07/28 04:30:56;;;;;;;0.30;0.30;;;;;;;19.44;70.33;100915.75;5014197;28;20030;-89
2021/07/28 04:33:25;;;;;;;0.30;0.30;;;;;;;19.49;70.23;100921.72;5013470;28;20041;-89
2021/07/28 04:35:51;;;;;;;1.13;0.82;;;;;;;19.41;70.52;100914.09;5011251;28;20037;-88
2021/07/28 04:38:20;;;;;;;0.52;0.45;;;;;;;19.51;70.15;100912.59;5009581;28;20042;-90
2021/07/28 04:40:46;;;;;;;0.47;0.47;;;;;;;19.52;70.20;100911.66;5013639;28;20114;-90
2021/07/28 04:43:12;;;;;;;0.45;0.45;;;;;;;19.50;70.33;100912.72;5013315;28;20029;-88
2021/07/28 04:45:39;;;;;;;0.30;0.30;;;;;;;19.49;70.54;100916.34;5014060;28;20076;-90
2021/07/28 04:48:06;;;;;;;0.80;0.80;;;;;;;19.56;70.13;100917.72;5013160;28;20505;-89
2021/07/28 04:50:33;;;;;;;0.38;0.38;;;;;;;19.57;70.31;100914.09;4999209;28;20030;-89
2021/07/28 04:52:59;;;;;;;1.60;1.50;;;;;;;19.55;70.39;100916.00;5000694;28;20033;-89
2021/07/28 04:55:26;;;;;;;3.15;1.13;;;;;;;19.53;70.36;100924.16;5008364;28;20038;-89
2021/07/28 04:57:52;;;;;;;0.22;0.22;;;;;;;19.59;70.27;100922.94;5006474;28;20042;-88
2021/07/28 05:00:18;;;;;;;0.35;0.35;;;;;;;19.52;70.38;100913.50;5007707;28;20114;-89
2021/07/28 05:02:45;;;;;;;0.10;0.10;;;;;;;19.63;70.02;100913.75;5012695;28;20018;-89
2021/07/28 05:05:11;;;;;;;0.73;0.73;;;;;;;19.55;70.40;100910.63;5012893;28;20370;-89
2021/07/28 05:07:37;;;;;;;0.82;0.80;;;;;;;19.64;70.13;100903.84;5013032;28;20026;-89
2021/07/28 05:10:04;;;;;;;0.45;0.45;;;;;;;19.63;70.50;100908.38;5013159;28;20090;-89
2021/07/28 05:12:30;;;;;;;2.50;2.40;;;;;;;19.69;70.58;100908.03;5013479;28;20044;-90
2021/07/28 05:14:57;;;;;;;4.80;1.70;;;;;;;19.75;70.51;100911.31;5013127;28;20026;-89
2021/07/28 05:17:24;;;;;;;0.73;0.65;;;;;;;19.78;70.49;100903.94;5004466;28;20040;-88
2021/07/28 05:19:50;;;;;;;0.25;0.25;;;;;;;19.83;70.32;100914.47;5006601;28;20030;-89
2021/07/28 05:22:17;;;;;;;0.70;0.70;;;;;;;20.02;69.81;100906.19;5009230;28;20517;-89
2021/07/28 05:24:43;;;;;;;2.15;1.23;;;;;;;19.95;69.57;100902.13;5012023;28;20477;-89
2021/07/28 05:27:11;;;;;;;0.50;0.50;;;;;;;20.09;69.15;100910.25;5012869;28;20061;-89
2021/07/28 05:29:38;;;;;;;0.73;0.73;;;;;;;19.83;69.75;100909.09;5012347;28;20057;-89
2021/07/28 05:32:04;;;;;;;0.80;0.80;;;;;;;20.13;68.99;100910.94;5008976;28;20049;-88
2021/07/28 05:34:30;;;;;;;2.70;0.88;;;;;;;19.89;69.37;100914.13;5011987;28;20026;-90
2021/07/28 05:36:57;;;;;;;0.63;0.63;;;;;;;20.03;69.24;100914.16;5006679;28;20117;-89
2021/07/28 05:39:25;;;;;;;0.13;0.13;;;;;;;20.12;69.08;100919.97;4996768;28;20053;-89
2021/07/28 05:41:56;;;;;;;0.52;0.52;;;;;;;20.14;68.99;100913.53;5006903;28;20041;-90
2021/07/28 05:44:33;;;;;;;1.67;1.58;;;;;;;20.15;68.95;100903.63;4995797;28;20133;-91
2021/07/28 05:47:06;;;;;;;0.47;0.47;;;;;;;20.29;68.65;100905.53;5005600;28;20407;-92
2021/07/28 05:49:34;;;;;;;0.80;0.80;;;;;;;20.15;68.17;100898.25;5008568;28;20041;-91
2021/07/28 05:52:09;;;;;;;0.40;0.40;;;;;;;20.13;67.74;100911.78;5005190;28;20039;-92
2021/07/28 05:54:45;;;;;;;1.05;1.05;;;;;;;20.17;67.41;100902.56;5003668;28;20563;-91
2021/07/28 05:57:14;;;;;;;0.30;0.30;;;;;;;20.15;67.53;100915.28;5010705;28;20034;-91
2021/07/28 05:59:40;;;;;;;1.00;1.00;;;;;;;20.08;67.89;100910.34;5012628;28;20021;-89
2021/07/28 06:02:12;;;;;;;1.25;1.25;;;;;;;20.08;67.94;100911.19;5011580;28;20104;-89
2021/07/28 06:04:43;;;;;;;0.70;0.70;;;;;;;20.05;67.67;100900.63;5011791;28;20037;-91
2021/07/28 06:07:18;;;;;;;0.40;0.40;;;;;;;20.13;68.24;100908.25;5014871;28;20102;-92
2021/07/28 06:09:53;;;;;;;0.65;0.65;;;;;;;20.36;67.72;100907.75;5016439;28;20044;-92
2021/07/28 06:12:24;;;;;;;1.08;0.55;;;;;;;20.38;67.88;100904.09;5010144;28;20078;-92
2021/07/28 06:14:52;;;;;;;0.68;0.55;;;;;;;20.37;67.50;100903.22;5010107;28;20481;-89
2021/07/28 06:17:21;;;;;;;0.85;0.85;;;;;;;20.43;66.89;100893.91;5016359;28;20121;-91
2021/07/28 06:19:47;;;;;;;0.85;0.85;;;;;;;20.47;66.58;100895.44;5005984;28;20041;-90
2021/07/28 06:22:14;;;;;;;0.52;0.52;;;;;;;20.46;66.75;100902.66;5011885;28;20053;-92
2021/07/28 06:27:52;;;;;;;0.77;0.77;;;;;;;20.94;66.38;100894.38;4989548;28;20038;-90
2021/07/28 06:33:59;;;;;;;0.20;0.20;;;;;;;21.11;64.49;100892.41;5011110;23;20042;-93
2021/07/28 06:37:30;;;;;;;;;;;;;;;;;;;;;
2021/07/28 06:45:21;;;;;;;0.40;0.40;;;;;;;21.05;64.01;100900.88;5563804;23;20077;-90
2021/07/28 06:47:49;;;;;;;0.30;0.30;;;;;;;21.05;63.70;100906.28;4994316;28;20042;-90
2021/07/28 06:50:47;;;;;;;0.77;0.77;;;;;;;21.06;63.56;100911.59;4994836;28;20061;-90
2021/07/28 06:53:28;;;;;;;0.38;0.38;;;;;;;21.10;63.47;100906.88;4992908;28;20485;-91
2021/07/28 07:04:20;;;;;;;0.40;0.40;;;;;;;20.59;64.05;100892.00;4974053;23;20054;-84
2021/07/28 07:06:46;;;;;;;1.70;1.02;;;;;;;20.75;64.11;100904.53;4977401;28;20125;-84
2021/07/28 07:09:12;;;;;;;0.10;0.10;;;;;;;20.87;63.82;100900.25;4975913;28;20034;-83
2021/07/28 07:11:38;;;;;;;0.20;0.20;;;;;;;20.74;64.49;100900.16;4986612;28;20053;-84
2021/07/28 07:14:04;;;;;;;0.10;0.10;;;;;;;20.88;63.95;100907.38;4980271;28;20497;-86
2021/07/28 07:16:31;;;;;;;0.98;0.50;;;;;;;20.74;63.77;100894.75;4986161;28;20837;-84
2021/07/28 07:18:57;;;;;;;0.10;0.10;;;;;;;20.67;63.52;100899.59;4985287;28;20481;-86
2021/07/28 07:21:26;;;;;;;0.63;0.63;;;;;;;20.69;63.05;100895.84;4977905;28;20046;-86
2021/07/28 07:23:54;;;;;;;14.35;0.98;;;;;;;20.95;63.47;100901.50;4984469;28;20027;-89
2021/07/28 07:26:20;;;;;;;0.10;0.10;;;;;;;20.99;62.86;100900.31;4980269;28;20371;-86
2021/07/28 07:28:49;;;;;;;0.10;0.10;;;;;;;21.09;63.15;100897.91;4990935;28;20023;-92
2021/07/28 07:31:15;;;;;;;0.47;0.40;;;;;;;21.17;63.13;100890.22;4974856;28;20093;-90
2021/07/28 07:33:42;;;;;;;0.20;0.20;;;;;;;21.17;62.71;100892.03;4974860;28;20073;-91
2021/07/28 07:36:14;;;;;;;0.28;0.28;;;;;;;21.34;62.18;100896.34;4974849;28;20030;-90
2021/07/28 07:38:41;;;;;;;0.30;0.30;;;;;;;21.46;62.62;100897.41;4975777;28;20038;-91
2021/07/28 07:41:08;;;;;;;0.10;0.10;;;;;;;21.47;62.36;100886.50;4973872;28;20073;-93
2021/07/28 07:43:35;;;;;;;0.10;0.10;;;;;;;21.42;61.49;100888.63;4956628;28;20054;-89
2021/07/28 07:46:01;;;;;;;1.02;0.65;;;;;;;21.52;61.41;100902.38;4974112;28;20023;-91
2021/07/28 07:48:28;;;;;;;0.40;0.40;;;;;;;21.23;61.40;100890.78;4972937;28;20497;-87
2021/07/28 07:50:54;;;;;;;0.73;0.73;;;;;;;21.59;61.17;100898.34;4973387;28;20030;-88
2021/07/28 07:53:21;;;;;;;0.47;0.47;;;;;;;21.51;61.13;100895.25;4972237;28;20027;-87
2021/07/28 08:03:28;;;;;;;;;;;;;;;;;;;;;
2021/07/28 08:12:49;;;;;;;;;;;;;;;;;;;;;
2021/07/28 08:16:11;;;;;;;0.52;0.52;;;;;;;21.45;60.68;100901.06;4917462;29;20134;-92
2021/07/28 08:19:06;;;;;;;1.08;1.05;;;;;;;21.62;60.25;100910.75;4936680;28;20062;-93
2021/07/28 08:24:41;;;;;;;0.10;0.10;;;;;;;21.60;59.97;100910.84;3867551;26;20055;-93
2021/07/28 08:27:27;;;;;;;0.20;0.20;;;;;;;21.32;60.33;100904.53;4931574;28;20086;-92
2021/07/28 08:30:11;;;;;;;0.57;0.57;;;;;;;21.49;59.75;100903.41;4956873;28;20797;-92
2021/07/28 08:32:37;;;;;;;4.95;1.55;;;;;;;21.49;60.21;100903.41;4954435;28;20066;-89
2021/07/28 08:35:04;;;;;;;0.17;0.17;;;;;;;21.44;60.40;100897.47;4954447;28;20051;-90
2021/07/28 08:37:30;;;;;;;1.33;0.80;;;;;;;21.27;60.51;100920.13;4959002;28;20027;-90
2021/07/28 08:39:56;;;;;;;0.28;0.28;;;;;;;21.37;60.68;100912.34;4954758;28;20034;-87
2021/07/28 08:42:29;;;;;;;6.97;1.58;;;;;;;21.45;60.19;100909.13;4943254;28;20039;-87
2021/07/28 08:44:55;;;;;;;0.30;0.30;;;;;;;21.33;60.47;100910.78;4972951;28;20023;-87
2021/07/28 08:47:22;;;;;;;0.10;0.10;;;;;;;21.34;60.32;100913.38;4945477;28;20043;-87
2021/07/28 08:49:52;;;;;;;0.17;0.17;;;;;;;21.32;59.56;100907.22;4946681;29;20110;-90
2021/07/28 08:52:19;;;;;;;0.20;0.20;;;;;;;21.14;60.15;100908.41;4937362;29;20063;-88
2021/07/28 08:54:45;;;;;;;0.55;0.55;;;;;;;21.17;60.24;100909.06;4951241;29;20059;-89
2021/07/28 08:57:11;;;;;;;0.10;0.10;;;;;;;21.31;59.47;100905.50;4950175;29;20474;-89
2021/07/28 08:59:37;;;;;;;0.20;0.20;;;;;;;20.91;60.69;100913.44;4951290;28;20032;-89
2021/07/28 09:02:04;;;;;;;0.28;0.28;;;;;;;21.27;60.03;100914.75;4955578;28;20023;-89
2021/07/28 09:04:31;;;;;;;0.38;0.38;;;;;;;21.41;59.98;100911.16;4949670;28;20074;-88
2021/07/28 09:06:57;;;;;;;0.20;0.20;;;;;;;21.38;59.62;100915.88;4951850;29;20062;-89
2021/07/28 09:09:24;;;;;;;0.10;0.10;;;;;;;21.58;59.68;100907.41;4950624;29;20588;-90
2021/07/28 09:11:59;;;;;;;0.40;0.40;;;;;;;21.62;59.38;100906.22;4951803;29;20062;-89
2021/07/28 09:14:32;;;;;;;0.20;0.20;;;;;;;21.86;58.99;100905.56;4939148;29;20373;-88
2021/07/28 09:17:19;;;;;;;0.47;0.47;;;;;;;22.02;58.13;100905.41;4946868;29;20035;-89
2021/07/28 09:19:48;;;;;;;0.10;0.10;;;;;;;21.69;58.95;100912.06;4949141;29;20055;-89
2021/07/28 09:22:18;;;;;;;0.10;0.10;;;;;;;22.03;58.48;100912.53;4953211;29;20082;-89
2021/07/28 09:24:47;;;;;;;0.35;0.35;;;;;;;22.00;58.10;100915.44;4932551;29;20880;-88
2021/07/28 09:27:38;;;;;;;1.40;1.17;;;;;;;22.41;57.60;100910.94;4942073;29;20459;-89
2021/07/28 09:30:04;;;;;;;0.40;0.40;;;;;;;22.28;58.08;100906.34;4938786;28;20586;-88
2021/07/28 09:32:32;;;;;;;0.45;0.45;;;;;;;22.28;57.32;100922.53;4947995;29;20078;-84
2021/07/28 09:35:14;;;;;;;0.20;0.20;;;;;;;22.44;56.71;100905.31;4938558;29;20039;-94
2021/07/28 09:37:52;;;;;;;6.00;1.60;;;;;;;22.34;56.56;100910.44;4944590;29;20043;-93
2021/07/28 09:40:27;;;;;;;0.10;0.10;;;;;;;22.39;56.51;100919.13;4938681;29;20046;-92
2021/07/28 09:43:18;;;;;;;0.52;0.52;;;;;;;22.35;56.62;100917.56;4947716;29;20434;-93
2021/07/28 09:45:51;;;;;;;0.87;0.87;;;;;;;22.26;57.00;100919.06;4953413;29;20052;-96
2021/07/28 09:48:38;;;;;;;0.65;0.28;;;;;;;22.34;56.89;100910.44;4950317;29;20086;-93
2021/07/28 09:52:11;;;;;;;0.35;0.35;;;;;;;22.27;56.55;100910.00;4951636;29;20487;-93
2021/07/28 10:08:48;;;;;;;;;;;;;;;;;;;;;
2021/07/28 10:11:25;;;;;;;0.30;0.30;;;;;;;23.22;54.11;100925.94;4880113;29;20110;-88
2021/07/28 10:13:52;;;;;;;0.43;0.30;;;;;;;23.18;53.91;100908.25;4951079;29;20028;-88
2021/07/28 10:16:19;;;;;;;0.00;0.00;;;;;;;23.40;53.64;100903.97;4950024;29;20035;-88
2021/07/28 10:18:48;;;;;;;0.20;0.20;;;;;;;23.07;54.09;100908.97;4952607;28;20103;-87
2021/07/28 10:21:15;;;;;;;0.35;0.35;;;;;;;23.14;53.17;100903.13;4950466;28;20051;-89
2021/07/28 10:23:43;;;;;;;0.20;0.20;;;;;;;23.20;53.81;100911.72;4949913;28;20031;-88
2021/07/28 10:26:12;;;;;;;0.20;0.20;;;;;;;23.25;53.13;100909.53;4947991;29;20039;-87
2021/07/28 10:28:46;;;;;;;0.22;0.22;;;;;;;23.19;53.89;100907.28;4950068;29;20028;-89
2021/07/28 10:31:21;;;;;;;0.10;0.10;;;;;;;23.41;53.05;100905.69;4948272;29;20027;-87
2021/07/28 10:33:53;;;;;;;0.10;0.10;;;;;;;23.18;53.39;100916.34;4946404;29;20494;-88
2021/07/28 10:36:23;;;;;;;0.47;0.47;;;;;;;23.42;53.05;100908.28;4946705;29;20394;-89
2021/07/28 10:39:04;;;;;;;0.10;0.10;;;;;;;23.29;52.46;100895.78;4942249;29;20028;-92
2021/07/28 10:58:42;;;;;;;0.88;0.75;;;;;;;23.57;52.07;100894.63;5077584;27;20483;-91
2021/07/28 11:01:09;;;;;;;0.22;0.22;;;;;;;23.39;51.96;100897.69;5076935;28;20050;-90
2021/07/28 11:03:42;;;;;;;0.20;0.20;;;;;;;23.68;52.00;100891.13;5059984;28;20057;-91
2021/07/28 11:06:36;;;;;;;0.10;0.10;;;;;;;23.93;51.70;100900.97;5056991;28;20025;-90
2021/07/28 11:09:25;;;;;;;0.10;0.10;;;;;;;23.81;50.99;100891.03;5051717;28;20673;-90
2021/07/28 11:12:19;;;;;;;2.35;0.90;;;;;;;24.14;51.41;100890.34;5049572;28;20025;-91
2021/07/28 11:14:55;;;;;;;3.95;1.85;;;;;;;24.41;50.60;100912.72;5047660;28;20042;-90
2021/07/28 11:17:27;;;;;;;0.13;0.13;;;;;;;24.62;50.35;100885.78;5043990;28;20025;-89
2021/07/28 11:20:06;;;;;;;0.52;0.52;;;;;;;24.31;49.66;100904.44;5048418;28;20021;-91
2021/07/28 11:22:40;;;;;;;0.10;0.10;;;;;;;24.14;49.28;100897.59;5048802;28;20037;-92
2021/07/28 11:25:07;;;;;;;0.10;0.10;;;;;;;23.86;50.54;100905.97;5053681;28;20087;-94
2021/07/28 11:27:33;;;;;;;0.20;0.20;;;;;;;23.79;51.53;100909.22;5053801;28;20111;-88
2021/07/28 11:30:15;;;;;;;0.45;0.45;;;;;;;23.85;51.19;100915.06;5052006;28;20112;-89
2021/07/28 11:32:41;;;;;;;0.20;0.20;;;;;;;24.00;50.69;100896.84;5052809;28;20037;-87
2021/07/28 11:35:11;;;;;;;0.10;0.10;;;;;;;24.33;50.73;100897.91;5056556;28;20056;-92
2021/07/28 11:37:43;;;;;;;0.10;0.10;;;;;;;24.18;50.83;100926.19;5041549;28;20515;-92
2021/07/28 11:40:10;;;;;;;0.20;0.20;;;;;;;23.89;51.31;100913.00;5052350;28;20116;-91
2021/07/28 11:42:41;;;;;;;0.30;0.30;;;;;;;24.08;51.20;100909.78;5051529;28;20090;-91
2021/07/28 11:45:40;;;;;;;0.10;0.10;;;;;;;24.00;52.08;100917.59;5055212;28;20432;-91
2021/07/28 11:48:33;;;;;;;1.02;0.63;;;;;;;24.43;51.83;100914.31;5047401;28;20041;-91
2021/07/28 12:04:27;;;;;;;6.65;1.65;;;;;;;23.37;53.90;100923.13;5126290;27;20502;-93
2021/07/28 12:07:08;;;;;;;1.20;1.20;;;;;;;23.59;54.02;100925.97;5103532;28;20024;-91
2021/07/28 12:09:34;;;;;;;0.10;0.10;;;;;;;23.47;55.96;100921.47;5104176;28;20028;-88
2021/07/28 12:14:46;;;;;;;0.10;0.10;;;;;;;22.72;58.10;100939.34;5106981;27;20922;-89
2021/07/28 12:20:12;;;;;;;0.10;0.10;;;;;;;22.38;58.72;100933.59;5064433;27;20455;-90
2021/07/28 12:23:03;;;;;;;0.30;0.30;;;;;;;22.35;58.63;100944.56;5050786;28;20030;-90
2021/07/28 12:25:56;;;;;;;0.25;0.15;;;;;;;22.10;59.31;100942.66;5046104;28;20091;-93
2021/07/28 12:28:57;;;;;;;0.20;0.20;;;;;;;22.47;58.53;100937.50;5048279;28;20063;-90
2021/07/28 12:31:29;;;;;;;0.10;0.10;;;;;;;22.54;58.69;100944.22;5047473;28;20036;-91
2021/07/28 12:34:36;;;;;;;0.20;0.20;;;;;;;22.46;59.10;100946.56;5049645;28;20040;-92
2021/07/28 12:37:32;;;;;;;0.55;0.55;;;;;;;23.20;58.49;100936.03;5041487;28;20054;-91
2021/07/28 12:40:01;;;;;;;0.30;0.30;;;;;;;23.23;57.38;100946.59;5044230;28;20030;-93
2021/07/28 12:42:30;;;;;;;0.30;0.30;;;;;;;23.49;56.19;100948.38;5044047;28;20030;-92
2021/07/28 12:47:31;;;;;;;0.10;0.10;;;;;;;23.43;54.73;100933.50;5160665;23;20076;-89
2021/07/28 12:50:02;;;;;;;0.25;0.25;;;;;;;23.26;55.43;100930.19;5018197;28;20022;-90
2021/07/28 12:53:17;;;;;;;;;;;;;;;;;;;;;
2021/07/28 12:55:54;;;;;;;0.10;0.10;;;;;;;23.30;55.78;100938.06;5025024;28;20046;-90
2021/07/28 12:58:23;;;;;;;0.50;0.50;;;;;;;23.10;55.84;100945.72;5022221;28;20080;-91
2021/07/28 13:00:52;;;;;;;0.20;0.20;;;;;;;23.02;55.79;100953.53;5025011;28;20038;-90
2021/07/28 13:03:23;;;;;;;0.40;0.40;;;;;;;23.06;54.35;100955.03;5024612;28;20053;-92
2021/07/28 13:05:54;;;;;;;0.25;0.25;;;;;;;23.22;53.52;100961.09;5022512;28;20040;-92
2021/07/28 13:08:26;;;;;;;0.20;0.20;;;;;;;23.67;54.29;100948.88;5022038;28;20018;-91
2021/07/28 13:10:52;;;;;;;0.57;0.52;;;;;;;23.51;53.84;100955.41;5022641;28;20037;-91
2021/07/28 13:13:24;;;;;;;0.20;0.20;;;;;;;23.75;53.35;100943.75;5025709;28;20503;-90
2021/07/28 13:16:10;;;;;;;;;;;;;;;;;;;;;
2021/07/28 13:18:46;;;;;;;0.10;0.10;;;;;;;24.01;51.97;100952.69;5019476;28;20397;-91
2021/07/28 13:21:12;;;;;;;0.20;0.20;;;;;;;24.23;51.04;100941.06;5020089;28;20424;-91
2021/07/28 13:23:39;;;;;;;0.10;0.10;;;;;;;23.94;50.95;100945.13;5022647;28;20026;-92
2021/07/28 13:26:05;;;;;;;0.20;0.20;;;;;;;23.93;50.72;100960.50;5018715;28;20037;-91